createdAt,value
2022-10-07T00:00:43.432Z,3.37
2022-10-07T00:03:30.750Z,3.27
2022-10-07T00:06:19.991Z,3.30
2022-10-07T00:09:06.979Z,3.20
2022-10-07T00:11:54.620Z,3.30
2022-10-07T00:14:42.662Z,3.27
2022-10-07T00:17:29.708Z,3.23
2022-10-07T00:20:16.748Z,3.17
2022-10-07T00:23:03.663Z,3.07
2022-10-07T00:25:50.584Z,3.17
2022-10-07T00:28:37.724Z,3.57
2022-10-07T00:31:27.743Z,2.93
2022-10-07T00:34:14.763Z,3.77
2022-10-07T00:37:01.681Z,3.53
2022-10-07T00:39:48.692Z,3.47
2022-10-07T00:42:36.214Z,2.90
2022-10-07T00:45:23.258Z,3.60
2022-10-07T00:48:11.857Z,3.93
2022-10-07T00:51:00.798Z,3.30
2022-10-07T00:53:51.030Z,3.10
2022-10-07T00:56:39.911Z,3.00
2022-10-07T00:59:27.292Z,3.93
2022-10-07T01:02:15.262Z,2.67
2022-10-07T01:05:06.146Z,3.20
2022-10-07T01:07:58.258Z,3.50
2022-10-07T01:11:24.416Z,3.20
2022-10-07T01:14:43.189Z,2.80
2022-10-07T01:17:39.062Z,3.67
2022-10-07T01:20:49.873Z,3.00
2022-10-07T01:23:44.377Z,2.90
2022-10-07T01:26:37.410Z,2.80
2022-10-07T01:29:36.525Z,3.30
2022-10-07T01:32:33.025Z,3.37
2022-10-07T01:35:25.285Z,2.70
2022-10-07T01:38:16.388Z,2.57
2022-10-07T01:41:11.099Z,3.30
2022-10-07T01:44:00.853Z,3.30
2022-10-07T01:46:47.944Z,3.57
2022-10-07T01:49:34.892Z,2.93
2022-10-07T01:52:49.829Z,3.10
2022-10-07T01:56:09.485Z,2.97
2022-10-07T01:59:23.871Z,3.13
2022-10-07T02:02:19.524Z,3.00
2022-10-07T02:05:40.186Z,3.10
2022-10-07T02:08:37.641Z,2.93
2022-10-07T02:11:30.638Z,3.07
2022-10-07T02:14:25.626Z,3.10
2022-10-07T02:17:19.114Z,2.90
2022-10-07T02:20:10.383Z,2.77
2022-10-07T02:23:02.300Z,2.90
2022-10-07T02:25:52.390Z,3.27
2022-10-07T02:28:42.800Z,2.97
2022-10-07T02:31:33.210Z,2.30
2022-10-07T02:34:22.890Z,2.70
2022-10-07T02:37:19.986Z,2.77
2022-10-07T02:40:12.078Z,3.03
2022-10-07T02:43:17.201Z,2.67
2022-10-07T02:46:12.409Z,2.93
2022-10-07T02:49:07.609Z,2.40
2022-10-07T02:51:56.779Z,3.10
2022-10-07T02:54:59.616Z,2.50
2022-10-07T02:57:50.349Z,2.63
2022-10-07T03:00:42.451Z,2.90
2022-10-07T03:03:30.603Z,3.03
2022-10-07T03:06:23.024Z,2.73
2022-10-07T03:09:11.304Z,2.33
2022-10-07T03:11:58.242Z,2.97
2022-10-07T03:14:45.615Z,2.40
2022-10-07T03:17:32.539Z,2.63
2022-10-07T03:20:19.540Z,2.87
2022-10-07T03:23:06.514Z,2.60
2022-10-07T03:25:55.702Z,2.10
2022-10-07T03:28:43.013Z,2.30
2022-10-07T03:31:30.182Z,2.83
2022-10-07T03:34:17.155Z,2.67
2022-10-07T03:37:04.553Z,1.87
2022-10-07T03:39:52.809Z,2.70
2022-10-07T03:42:43.485Z,2.37
2022-10-07T03:45:30.635Z,2.40
2022-10-07T03:48:17.828Z,3.30
2022-10-07T03:51:04.976Z,2.30
2022-10-07T03:53:57.605Z,2.20
2022-10-07T03:56:44.625Z,2.50
2022-10-07T03:59:32.721Z,2.30
2022-10-07T04:02:21.638Z,2.57
2022-10-07T04:05:09.320Z,2.67
2022-10-07T04:07:56.334Z,2.97
2022-10-07T04:10:43.325Z,2.63
2022-10-07T04:13:30.321Z,2.67
2022-10-07T04:16:17.544Z,3.20
2022-10-07T04:19:05.845Z,2.60
2022-10-07T04:21:52.955Z,2.90
2022-10-07T04:24:39.924Z,2.87
2022-10-07T04:27:50.113Z,2.70
2022-10-07T04:30:39.593Z,2.83
2022-10-07T04:33:26.575Z,3.37
2022-10-07T04:36:13.878Z,2.80
2022-10-07T04:39:00.906Z,2.53
2022-10-07T04:41:48.020Z,2.37
2022-10-07T04:44:34.982Z,2.43
2022-10-07T04:47:21.980Z,2.43
2022-10-07T04:50:09.076Z,3.00
2022-10-07T04:52:56.045Z,2.23
2022-10-07T04:55:46.738Z,2.57
2022-10-07T04:58:33.729Z,2.90
2022-10-07T05:01:20.704Z,2.50
2022-10-07T05:04:07.765Z,2.50
2022-10-07T05:06:54.699Z,2.50
2022-10-07T05:09:41.745Z,2.83
2022-10-07T05:12:28.756Z,3.07
2022-10-07T05:15:15.765Z,2.63
2022-10-07T05:18:03.265Z,2.80
2022-10-07T05:20:50.881Z,3.00
2022-10-07T05:23:37.900Z,2.97
2022-10-07T05:26:24.891Z,2.53
2022-10-07T05:29:12.129Z,2.50
2022-10-07T05:32:04.849Z,2.30
2022-10-07T05:34:52.817Z,2.50
2022-10-07T05:37:39.933Z,2.67
2022-10-07T05:40:26.960Z,2.33
2022-10-07T05:43:13.917Z,2.97
2022-10-07T05:46:03.326Z,3.30
2022-10-07T05:48:52.919Z,2.97
2022-10-07T05:51:39.966Z,2.77
2022-10-07T05:54:26.930Z,2.77
2022-10-07T05:57:13.920Z,2.80
2022-10-07T06:00:00.990Z,2.53
2022-10-07T06:02:48.025Z,3.20
2022-10-07T06:05:35.050Z,3.00
2022-10-07T06:08:23.644Z,2.80
2022-10-07T06:11:32.639Z,3.03
2022-10-07T06:14:19.578Z,3.13
2022-10-07T06:17:06.770Z,3.13
2022-10-07T06:19:54.092Z,3.20
2022-10-07T06:22:43.153Z,3.53
2022-10-07T06:25:30.476Z,2.83
2022-10-07T06:28:18.005Z,3.20
2022-10-07T06:31:11.214Z,3.23
2022-10-07T06:33:58.568Z,3.00
2022-10-07T06:36:45.600Z,3.03
2022-10-07T06:39:32.527Z,2.97
2022-10-07T06:42:19.507Z,3.20
2022-10-07T06:45:08.066Z,2.80
2022-10-07T06:47:55.371Z,2.70
2022-10-07T06:50:50.921Z,3.10
2022-10-07T06:53:37.994Z,2.77
2022-10-07T06:56:27.483Z,2.87
2022-10-07T06:59:14.446Z,2.77
2022-10-07T07:02:01.652Z,2.50
2022-10-07T07:04:48.622Z,3.40
2022-10-07T07:07:35.613Z,3.70
2022-10-07T07:10:22.598Z,3.60
2022-10-07T07:13:10.833Z,3.60
2022-10-07T07:16:00.186Z,3.60
2022-10-07T07:18:54.441Z,2.70
2022-10-07T07:21:41.615Z,2.70
2022-10-07T07:24:28.638Z,3.17
2022-10-07T07:27:15.532Z,3.93
2022-10-07T07:30:04.294Z,3.00
2022-10-07T07:32:51.234Z,2.40
2022-10-07T07:35:41.536Z,2.87
2022-10-07T07:38:28.729Z,3.20
2022-10-07T07:41:16.629Z,2.93
2022-10-07T07:44:05.918Z,3.20
2022-10-07T07:46:52.815Z,2.87
2022-10-07T07:49:39.783Z,2.97
2022-10-07T07:52:27.308Z,2.97
2022-10-07T07:55:14.284Z,3.43
2022-10-07T07:58:01.338Z,3.10
2022-10-07T08:01:06.193Z,2.93
2022-10-07T08:03:53.569Z,3.17
2022-10-07T08:06:40.862Z,2.83
2022-10-07T08:09:27.991Z,2.97
2022-10-07T08:12:14.924Z,2.60
2022-10-07T08:15:02.071Z,2.23
2022-10-07T08:17:50.184Z,2.47
2022-10-07T08:20:37.165Z,2.60
2022-10-07T08:23:26.597Z,2.60
2022-10-07T08:26:15.042Z,2.77
2022-10-07T08:29:02.322Z,2.83
2022-10-07T08:31:49.603Z,2.80
2022-10-07T08:34:36.693Z,2.60
2022-10-07T08:37:23.615Z,2.80
2022-10-07T08:40:16.027Z,3.00
2022-10-07T08:43:03.614Z,2.53
2022-10-07T08:45:52.854Z,2.73
2022-10-07T08:49:15.561Z,2.77
2022-10-07T08:52:16.973Z,2.63
2022-10-07T08:55:15.241Z,2.70
2022-10-07T08:58:19.801Z,2.30
2022-10-07T09:01:26.957Z,2.87
2022-10-07T09:04:38.773Z,2.23
2022-10-07T09:07:48.058Z,2.27
2022-10-07T09:10:44.150Z,2.10
2022-10-07T09:13:36.130Z,2.13
2022-10-07T09:16:38.013Z,2.37
2022-10-07T09:19:39.855Z,2.27
2022-10-07T09:22:37.589Z,2.63
2022-10-07T09:25:27.897Z,2.27
2022-10-07T09:28:21.173Z,2.67
2022-10-07T09:31:13.669Z,2.13
2022-10-07T09:34:00.662Z,2.10
2022-10-07T09:37:13.070Z,2.27
2022-10-07T09:40:30.244Z,2.40
2022-10-07T09:43:19.375Z,2.70
2022-10-07T09:46:06.480Z,3.00
2022-10-07T09:49:05.024Z,2.70
2022-10-07T09:52:04.026Z,2.60
2022-10-07T09:54:53.065Z,2.10
2022-10-07T09:57:40.570Z,2.50
2022-10-07T10:00:27.860Z,2.73
2022-10-07T10:03:15.929Z,2.63
2022-10-07T10:06:09.029Z,2.20
2022-10-07T10:08:57.714Z,2.60
2022-10-07T10:11:45.362Z,2.20
2022-10-07T10:14:42.905Z,2.03
2022-10-07T10:17:35.718Z,2.93
2022-10-07T10:20:35.995Z,2.67
2022-10-07T10:23:23.511Z,2.30
2022-10-07T10:26:29.367Z,2.30
2022-10-07T10:29:46.573Z,2.17
2022-10-07T10:32:58.082Z,2.27
2022-10-07T10:35:58.180Z,2.47
2022-10-07T10:39:04.450Z,2.03
2022-10-07T10:42:01.796Z,2.63
2022-10-07T10:45:07.846Z,2.67
2022-10-07T10:48:05.061Z,2.57
2022-10-07T10:51:12.688Z,2.37
2022-10-07T10:54:21.402Z,2.67
2022-10-07T10:57:23.013Z,2.47
2022-10-07T11:00:13.410Z,2.10
2022-10-07T11:03:19.389Z,1.97
2022-10-07T11:06:11.400Z,2.50
2022-10-07T11:09:00.352Z,2.20
2022-10-07T11:11:47.458Z,2.23
2022-10-07T11:14:40.599Z,2.37
2022-10-07T11:17:32.350Z,2.50
2022-10-07T11:20:44.432Z,2.50
2022-10-07T11:23:41.724Z,2.40
2022-10-07T11:26:35.004Z,2.03
2022-10-07T11:29:48.413Z,2.60
2022-10-07T11:33:08.195Z,2.13
2022-10-07T11:36:08.025Z,2.20
2022-10-07T11:38:55.299Z,2.40
2022-10-07T11:41:59.687Z,2.47
2022-10-07T11:45:03.398Z,2.57
2022-10-07T11:47:56.340Z,2.07
2022-10-07T11:50:54.472Z,2.30
2022-10-07T11:53:41.482Z,2.00
2022-10-07T11:56:51.480Z,1.90
2022-10-07T11:59:58.044Z,2.60
2022-10-07T12:02:47.149Z,2.13
2022-10-07T12:05:34.231Z,2.40
2022-10-07T12:08:42.273Z,2.53
2022-10-07T12:11:32.248Z,2.17
2022-10-07T12:14:42.398Z,2.47
2022-10-07T12:17:30.498Z,1.97
2022-10-07T12:20:52.642Z,2.40
2022-10-07T12:23:41.002Z,2.03
2022-10-07T12:26:31.076Z,2.40
2022-10-07T12:29:24.949Z,2.20
2022-10-07T12:32:56.292Z,2.10
2022-10-07T12:35:48.693Z,2.20
2022-10-07T12:38:39.928Z,2.50
2022-10-07T12:41:39.656Z,2.53
2022-10-07T12:44:33.496Z,2.20
2022-10-07T12:47:29.646Z,2.50
2022-10-07T12:50:19.805Z,2.03
2022-10-07T12:53:09.622Z,1.90
2022-10-07T12:55:57.622Z,2.47
2022-10-07T12:59:08.990Z,2.23
2022-10-07T13:02:31.637Z,2.57
2022-10-07T13:05:59.861Z,2.37
2022-10-07T13:09:24.521Z,2.23
2022-10-07T13:12:22.981Z,2.20
2022-10-07T13:15:28.731Z,2.40
2022-10-07T13:18:24.625Z,2.00
2022-10-07T13:21:23.929Z,2.27
2022-10-07T13:24:16.840Z,2.07
2022-10-07T13:27:08.829Z,2.30
2022-10-07T13:29:57.680Z,2.27
2022-10-07T13:32:45.563Z,2.20
2022-10-07T13:35:38.783Z,2.47
2022-10-07T13:38:28.386Z,1.93
2022-10-07T13:41:23.113Z,2.20
2022-10-07T13:44:14.417Z,2.00
2022-10-07T13:47:04.792Z,2.30
2022-10-07T13:49:53.993Z,2.23
2022-10-07T13:52:45.197Z,2.40
2022-10-07T13:55:33.974Z,1.93
2022-10-07T13:58:21.046Z,2.30
2022-10-07T14:01:08.476Z,2.63
2022-10-07T14:04:20.298Z,2.27
2022-10-07T14:07:13.362Z,2.17
2022-10-07T14:10:00.346Z,1.87
2022-10-07T14:12:51.265Z,2.60
2022-10-07T14:15:48.090Z,2.27
2022-10-07T14:18:35.163Z,2.37
2022-10-07T14:21:22.200Z,2.53
2022-10-07T14:24:10.064Z,2.27
2022-10-07T14:26:57.221Z,1.80
2022-10-07T14:29:44.249Z,2.33
2022-10-07T14:32:49.819Z,2.30
2022-10-07T14:35:39.541Z,1.93
2022-10-07T14:38:27.441Z,2.63
2022-10-07T14:41:16.973Z,2.47
2022-10-07T14:44:03.961Z,2.27
2022-10-07T14:46:50.989Z,2.33
2022-10-07T14:49:38.043Z,2.30
2022-10-07T14:52:52.604Z,2.10
2022-10-07T14:55:39.821Z,2.47
2022-10-07T14:58:26.821Z,2.07
2022-10-07T15:01:13.747Z,2.87
2022-10-07T15:04:01.252Z,2.83
2022-10-07T15:06:51.039Z,2.10
2022-10-07T15:09:38.208Z,2.60
2022-10-07T15:12:25.142Z,2.40
2022-10-07T15:15:13.715Z,2.63
2022-10-07T15:18:00.627Z,1.87
2022-10-07T15:20:55.308Z,2.00
2022-10-07T15:23:42.330Z,2.80
2022-10-07T15:26:29.708Z,2.43
2022-10-07T15:29:17.106Z,2.30
2022-10-07T15:32:04.633Z,2.60
2022-10-07T15:34:55.001Z,2.50
2022-10-07T15:37:45.970Z,2.37
2022-10-07T15:40:33.046Z,2.37
2022-10-07T15:43:20.214Z,2.63
2022-10-07T15:46:07.187Z,2.40
2022-10-07T15:48:56.369Z,2.33
2022-10-07T15:51:43.764Z,2.30
2022-10-07T15:54:31.975Z,2.87
2022-10-07T15:57:18.939Z,2.47
2022-10-07T16:00:06.403Z,2.03
2022-10-07T16:02:54.501Z,2.53
2022-10-07T16:05:41.592Z,1.93
2022-10-07T16:08:31.149Z,2.90
2022-10-07T16:11:18.701Z,2.33
2022-10-07T16:14:06.439Z,2.23
2022-10-07T16:16:54.209Z,2.30
2022-10-07T16:19:42.034Z,2.70
2022-10-07T16:22:29.776Z,2.73
2022-10-07T16:25:17.470Z,2.30
2022-10-07T16:28:23.286Z,2.43
2022-10-07T16:31:11.556Z,2.40
2022-10-07T16:33:59.357Z,2.37
2022-10-07T16:36:48.321Z,2.20
2022-10-07T16:39:35.638Z,2.20
2022-10-07T16:42:22.895Z,2.30
2022-10-07T16:45:10.585Z,2.33
2022-10-07T16:47:59.128Z,2.20
2022-10-07T16:50:47.990Z,2.50
2022-10-07T16:53:35.212Z,2.27
2022-10-07T16:56:23.238Z,2.20
2022-10-07T16:59:11.886Z,2.30
2022-10-07T17:02:02.450Z,2.30
2022-10-07T17:04:49.782Z,2.23
2022-10-07T17:07:37.127Z,2.20
2022-10-07T17:10:25.112Z,2.70
2022-10-07T17:13:13.989Z,2.47
2022-10-07T17:16:01.205Z,3.00
2022-10-07T17:18:49.215Z,2.53
2022-10-07T17:21:37.426Z,2.87
2022-10-07T17:24:24.941Z,2.80
2022-10-07T17:27:12.118Z,2.67
2022-10-07T17:29:59.355Z,2.60
2022-10-07T17:32:50.281Z,2.80
2022-10-07T17:35:38.228Z,2.97
2022-10-07T17:38:33.712Z,3.10
2022-10-07T17:41:31.026Z,2.83
2022-10-07T17:44:18.764Z,3.47
2022-10-07T17:47:06.084Z,3.00
2022-10-07T17:49:54.684Z,3.27
2022-10-07T17:52:42.486Z,3.37
2022-10-07T17:55:30.228Z,3.37
2022-10-07T17:58:19.640Z,2.80
2022-10-07T18:01:16.831Z,2.97
2022-10-07T18:04:06.744Z,3.77
2022-10-07T18:06:53.730Z,3.67
2022-10-07T18:09:41.134Z,3.23
2022-10-07T18:12:46.945Z,3.93
2022-10-07T18:15:33.967Z,4.00
2022-10-07T18:18:21.140Z,4.10
2022-10-07T18:21:09.774Z,4.03
2022-10-07T18:23:57.861Z,4.47
2022-10-07T18:26:45.683Z,4.47
2022-10-07T18:29:38.597Z,4.40
2022-10-07T18:32:25.964Z,5.10
2022-10-07T18:35:14.119Z,4.97
2022-10-07T18:38:01.217Z,5.63
2022-10-07T18:40:48.529Z,5.50
2022-10-07T18:43:35.997Z,5.50
2022-10-07T18:46:23.486Z,5.70
2022-10-07T18:49:13.716Z,5.30
2022-10-07T18:52:01.073Z,4.60
2022-10-07T18:54:47.970Z,4.37
2022-10-07T18:57:34.969Z,4.43
2022-10-07T19:00:22.594Z,3.80
2022-10-07T19:03:09.756Z,4.10
2022-10-07T19:05:56.700Z,4.43
2022-10-07T19:08:44.117Z,4.23
2022-10-07T19:11:31.057Z,4.50
2022-10-07T19:14:18.213Z,4.40
2022-10-07T19:17:05.162Z,3.87
2022-10-07T19:19:52.148Z,4.00
2022-10-07T19:22:39.137Z,5.23
2022-10-07T19:25:44.547Z,4.93
2022-10-07T19:28:31.723Z,4.77
2022-10-07T19:31:23.430Z,4.20
2022-10-07T19:34:15.625Z,4.27
2022-10-07T19:37:03.082Z,5.03
2022-10-07T19:39:50.463Z,5.20
2022-10-07T19:42:37.859Z,4.40
2022-10-07T19:45:24.977Z,4.90
2022-10-07T19:48:14.557Z,4.20
2022-10-07T19:51:05.660Z,5.10
2022-10-07T19:53:53.621Z,3.63
2022-10-07T19:56:41.436Z,3.73
2022-10-07T19:59:28.445Z,3.80
2022-10-07T20:02:15.377Z,5.00
2022-10-07T20:05:02.354Z,4.67
2022-10-07T20:07:49.555Z,4.30
2022-10-07T20:10:38.530Z,4.60
2022-10-07T20:13:26.017Z,4.60
2022-10-07T20:16:22.087Z,4.40
2022-10-07T20:19:15.860Z,4.47
2022-10-07T20:22:03.760Z,4.03
2022-10-07T20:24:51.040Z,3.87
2022-10-07T20:27:38.941Z,4.43
2022-10-07T20:30:30.295Z,3.70
2022-10-07T20:33:17.605Z,4.00
2022-10-07T20:36:05.024Z,4.83
2022-10-07T20:39:17.734Z,4.90
2022-10-07T20:42:22.191Z,4.00
2022-10-07T20:45:09.274Z,4.00
2022-10-07T20:47:59.600Z,4.50
2022-10-07T20:50:46.543Z,4.67
2022-10-07T20:53:33.552Z,3.73
2022-10-07T20:56:21.210Z,4.20
2022-10-07T20:59:10.310Z,4.80
2022-10-07T21:01:57.989Z,4.37
2022-10-07T21:04:47.195Z,4.33
2022-10-07T21:07:34.119Z,3.73
2022-10-07T21:10:21.209Z,4.87
2022-10-07T21:13:08.114Z,3.93
2022-10-07T21:15:56.328Z,4.83
2022-10-07T21:18:43.258Z,4.70
2022-10-07T21:21:30.277Z,5.03
2022-10-07T21:24:17.579Z,5.07
2022-10-07T21:27:06.926Z,4.63
2022-10-07T21:29:54.450Z,5.10
2022-10-07T21:32:41.452Z,5.30
2022-10-07T21:35:28.480Z,5.33
2022-10-07T21:38:15.505Z,4.80
2022-10-07T21:41:15.450Z,4.80
2022-10-07T21:44:04.976Z,5.03
2022-10-07T21:46:52.001Z,4.60
2022-10-07T21:49:38.945Z,5.60
2022-10-07T21:52:25.846Z,4.23
2022-10-07T21:55:12.775Z,5.80
2022-10-07T21:57:59.669Z,4.63
2022-10-07T22:00:47.005Z,4.53
2022-10-07T22:03:34.526Z,5.10
2022-10-07T22:06:42.288Z,4.97
2022-10-07T22:09:29.271Z,4.10
2022-10-07T22:12:16.241Z,3.90
2022-10-07T22:15:03.194Z,4.57
2022-10-07T22:17:50.774Z,4.00
2022-10-07T22:20:38.966Z,3.93
2022-10-07T22:23:25.942Z,3.80
2022-10-07T22:26:13.157Z,4.33
2022-10-07T22:29:00.699Z,3.63
2022-10-07T22:31:47.670Z,3.33
2022-10-07T22:34:53.201Z,3.93
2022-10-07T22:37:40.831Z,3.77
2022-10-07T22:40:28.638Z,4.03
2022-10-07T22:43:15.549Z,4.10
2022-10-07T22:46:03.159Z,3.70
2022-10-07T22:48:51.627Z,3.80
2022-10-07T22:51:38.550Z,3.80
2022-10-07T22:54:25.970Z,3.63
2022-10-07T22:57:12.932Z,3.60
2022-10-07T23:00:03.808Z,3.80
2022-10-07T23:02:53.663Z,3.90
2022-10-07T23:05:40.817Z,3.27
2022-10-07T23:08:28.785Z,4.23
2022-10-07T23:11:18.097Z,3.10
2022-10-07T23:14:05.709Z,3.63
2022-10-07T23:16:52.705Z,3.17
2022-10-07T23:19:39.671Z,3.87
2022-10-07T23:22:26.844Z,3.00
2022-10-07T23:25:13.937Z,3.57
2022-10-07T23:28:00.907Z,3.10
2022-10-07T23:30:48.720Z,3.00
2022-10-07T23:33:37.057Z,3.13
2022-10-07T23:36:25.441Z,3.40
2022-10-07T23:39:12.481Z,3.07
2022-10-07T23:41:59.365Z,3.27
2022-10-07T23:44:46.296Z,3.10
2022-10-07T23:47:33.194Z,3.57
2022-10-07T23:50:23.095Z,3.10
2022-10-07T23:53:10.436Z,3.27
2022-10-07T23:55:57.385Z,3.53
2022-10-07T23:58:44.790Z,3.27
